createdAt,value
2019-04-23T00:00:23.951Z,7.80
2019-04-23T00:02:56.651Z,7.70
2019-04-23T00:05:36.476Z,7.70
2019-04-23T00:08:07.489Z,7.70
2019-04-23T00:10:30.401Z,7.70
2019-04-23T00:13:13.002Z,7.70
2019-04-23T00:15:33.846Z,7.60
2019-04-23T00:18:04.161Z,7.60
2019-04-23T00:20:34.311Z,7.50
2019-04-23T00:23:06.415Z,7.40
2019-04-23T00:26:09.218Z,7.30
2019-04-23T00:28:29.807Z,7.10
2019-04-23T00:30:54.981Z,7.00
2019-04-23T00:33:25.627Z,6.90
2019-04-23T00:35:55.316Z,6.90
2019-04-23T00:40:58.122Z,6.80
2019-04-23T00:43:27.011Z,6.80
2019-04-23T00:45:55.204Z,6.60
2019-04-23T00:48:35.051Z,6.60
2019-04-23T00:50:54.240Z,6.60
2019-04-23T00:53:30.003Z,6.60
2019-04-23T01:00:57.869Z,6.60
2019-04-23T01:03:25.430Z,6.60
2019-04-23T01:06:02.746Z,6.60
2019-04-23T01:08:29.715Z,6.60
2019-04-23T01:11:06.318Z,6.60
2019-04-23T01:13:39.536Z,6.60
2019-04-23T01:16:05.414Z,6.60
2019-04-23T01:18:49.077Z,6.50
2019-04-23T01:21:05.618Z,6.50
2019-04-23T01:23:44.605Z,6.40
2019-04-23T01:26:24.039Z,6.30
2019-04-23T01:29:03.348Z,6.30
2019-04-23T01:31:39.384Z,6.30
2019-04-23T01:34:06.108Z,6.20
2019-04-23T01:36:33.258Z,6.20
2019-04-23T01:39:08.515Z,6.20
2019-04-23T01:41:38.448Z,6.10
2019-04-23T01:44:07.472Z,6.00
2019-04-23T01:46:41.988Z,6.00
2019-04-23T01:49:07.087Z,6.00
2019-04-23T01:51:40.812Z,6.10
2019-04-23T01:54:06.974Z,6.00
2019-04-23T01:56:36.880Z,6.00
2019-04-23T01:59:11.184Z,5.90
2019-04-23T02:01:39.886Z,5.90
2019-04-23T02:06:38.679Z,5.80
2019-04-23T02:09:25.062Z,5.70
2019-04-23T02:11:42.190Z,5.70
2019-04-23T02:19:16.799Z,5.80
2019-04-23T02:21:59.889Z,5.70
2019-04-23T02:24:17.746Z,5.70
2019-04-23T02:26:50.775Z,5.70
2019-04-23T02:29:28.669Z,5.80
2019-04-23T02:31:57.736Z,5.80
2019-04-23T02:34:33.361Z,5.80
2019-04-23T02:36:57.335Z,5.80
2019-04-23T02:39:29.157Z,5.80
2019-04-23T02:46:59.338Z,5.80
2019-04-23T02:49:36.168Z,5.80
2019-04-23T02:51:59.407Z,5.80
2019-04-23T02:54:37.536Z,5.80
2019-04-23T02:57:05.762Z,5.70
2019-04-23T02:59:57.788Z,5.70
2019-04-23T03:02:05.868Z,5.60
2019-04-23T03:04:35.058Z,5.40
2019-04-23T03:07:03.231Z,5.20
2019-04-23T03:09:44.929Z,5.00
2019-04-23T03:14:33.402Z,5.00
2019-04-23T03:19:37.927Z,5.00
2019-04-23T03:27:33.751Z,5.00
2019-04-23T03:33:37.738Z,5.10
2019-04-23T03:37:39.958Z,5.30
2019-04-23T03:40:07.939Z,5.40
2019-04-23T03:42:42.431Z,5.50
2019-04-23T03:45:16.653Z,5.50
2019-04-23T03:47:40.015Z,5.50
2019-04-23T03:50:14.940Z,5.50
2019-04-23T03:55:11.724Z,5.50
2019-04-23T04:02:48.730Z,5.60
2019-04-23T04:05:12.918Z,5.70
2019-04-23T04:07:52.785Z,5.70
2019-04-23T04:10:06.739Z,5.70
2019-04-23T04:17:50.248Z,6.00
2019-04-23T04:25:37.470Z,6.30
2019-04-23T04:27:53.799Z,6.40
2019-04-23T04:30:21.874Z,6.50
2019-04-23T04:32:59.094Z,6.60
2019-04-23T04:37:52.789Z,6.70
2019-04-23T04:40:39.789Z,6.80
2019-04-23T04:43:13.850Z,6.80
2019-04-23T04:45:47.305Z,6.90
2019-04-23T04:50:26.420Z,7.00
2019-04-23T04:55:33.894Z,7.10
2019-04-23T04:58:12.335Z,7.20
2019-04-23T05:00:59.629Z,7.30
2019-04-23T05:03:12.680Z,7.80
2019-04-23T05:05:51.084Z,8.50
2019-04-23T05:07:55.726Z,8.90
2019-04-23T05:13:12.053Z,8.90
2019-04-23T05:15:25.478Z,9.20
2019-04-23T05:18:24.025Z,9.20
2019-04-23T05:23:23.143Z,11.20
2019-04-23T05:25:44.971Z,11.60
2019-04-23T05:28:29.924Z,12.00
2019-04-23T05:33:18.862Z,11.50
2019-04-23T05:36:06.074Z,11.40
2019-04-23T05:38:31.482Z,11.80
2019-04-23T05:43:19.290Z,12.50
2019-04-23T05:45:46.767Z,12.00
2019-04-23T05:48:20.093Z,12.70
2019-04-23T05:53:18.444Z,13.30
2019-04-23T05:55:55.371Z,13.60
2019-04-23T05:58:22.791Z,13.50
2019-04-23T06:00:59.922Z,13.50
2019-04-23T06:03:22.896Z,12.70
2019-04-23T06:05:54.270Z,12.10
2019-04-23T06:08:41.007Z,11.80
2019-04-23T06:10:59.852Z,11.00
2019-04-23T06:13:26.922Z,10.60
2019-04-23T06:15:55.870Z,10.10
2019-04-23T06:18:37.142Z,10.00
2019-04-23T06:23:36.590Z,10.70
2019-04-23T06:26:21.158Z,10.80
2019-04-23T06:28:27.098Z,10.80
2019-04-23T06:31:02.385Z,10.00
2019-04-23T06:33:34.106Z,9.80
2019-04-23T06:36:09.828Z,10.00
2019-04-23T06:38:41.034Z,10.00
2019-04-23T06:41:06.279Z,9.70
2019-04-23T06:43:33.146Z,9.80
2019-04-23T06:46:07.200Z,10.00
2019-04-23T06:48:38.551Z,10.10
2019-04-23T06:51:12.842Z,10.10
2019-04-23T06:53:29.216Z,10.10
2019-04-23T06:58:37.450Z,10.50
2019-04-23T07:01:08.331Z,10.40
2019-04-23T07:16:11.439Z,11.40
2019-04-23T07:18:41.558Z,11.50
2019-04-23T07:23:53.616Z,11.40
2019-04-23T07:26:26.086Z,11.10
2019-04-23T07:31:24.368Z,11.00
2019-04-23T07:33:52.849Z,11.10
2019-04-23T07:36:17.860Z,11.30
2019-04-23T07:38:56.393Z,11.60
2019-04-23T07:41:30.541Z,12.20
2019-04-23T07:44:08.542Z,12.70
2019-04-23T07:49:04.602Z,13.60
2019-04-23T07:51:38.941Z,14.30
2019-04-23T07:54:07.555Z,14.60
2019-04-23T07:56:35.660Z,14.00
2019-04-23T07:59:05.756Z,13.60
2019-04-23T08:01:35.725Z,13.50
2019-04-23T08:04:04.702Z,13.90
2019-04-23T08:06:40.997Z,14.30
2019-04-23T08:09:09.194Z,14.90
2019-04-23T08:14:06.501Z,14.50
2019-04-23T08:16:38.296Z,14.30
2019-04-23T08:21:40.355Z,13.80
2019-04-23T08:24:10.233Z,13.90
2019-04-23T08:26:55.107Z,13.90
2019-04-23T08:29:19.886Z,14.40
2019-04-23T08:32:11.786Z,14.80
2019-04-23T08:34:38.844Z,14.80
2019-04-23T08:37:03.196Z,15.50
2019-04-23T08:39:26.413Z,15.80
2019-04-23T08:44:56.423Z,15.80
2019-04-23T08:50:34.079Z,16.50
2019-04-23T08:54:48.343Z,14.30
2019-04-23T08:57:08.762Z,15.10
2019-04-23T08:59:47.580Z,15.70
2019-04-23T09:02:22.072Z,15.60
2019-04-23T09:04:49.538Z,15.00
2019-04-23T09:09:47.536Z,14.10
2019-04-23T09:12:12.321Z,14.50
2019-04-23T09:14:42.264Z,14.50
2019-04-23T09:17:13.293Z,15.30
2019-04-23T09:20:03.575Z,15.60
2019-04-23T09:22:14.634Z,14.50
2019-04-23T09:24:44.888Z,14.80
2019-04-23T09:27:18.151Z,14.80
2019-04-23T09:29:45.790Z,15.10
2019-04-23T09:35:02.517Z,15.00
2019-04-23T09:42:54.491Z,15.70
2019-04-23T09:45:41.175Z,15.20
2019-04-23T09:48:13.858Z,15.70
2019-04-23T09:50:46.848Z,16.30
2019-04-23T09:53:17.670Z,16.30
2019-04-23T09:58:22.386Z,15.70
2019-04-23T10:00:59.108Z,15.40
2019-04-23T10:03:10.943Z,15.50
2019-04-23T10:05:33.586Z,15.10
2019-04-23T10:08:02.892Z,15.30
2019-04-23T10:10:23.317Z,15.30
2019-04-23T10:12:53.643Z,15.50
2019-04-23T10:15:26.663Z,15.30
2019-04-23T10:17:54.114Z,15.20
2019-04-23T10:20:24.610Z,15.10
2019-04-23T10:22:54.569Z,14.80
2019-04-23T10:25:23.679Z,15.00
2019-04-23T10:27:57.006Z,14.60
2019-04-23T10:30:23.757Z,14.90
2019-04-23T10:32:53.700Z,14.60
2019-04-23T10:35:36.570Z,14.60
2019-04-23T10:38:01.500Z,14.40
2019-04-23T10:40:30.210Z,14.20
2019-04-23T10:42:54.448Z,14.20
2019-04-23T10:45:40.855Z,14.20
2019-04-23T10:49:18.366Z,14.10
2019-04-23T10:58:31.511Z,14.40
2019-04-23T11:01:00.990Z,14.50
2019-04-23T11:08:30.790Z,14.50
2019-04-23T11:11:07.743Z,14.30
2019-04-23T11:18:45.231Z,14.10
2019-04-23T11:21:13.512Z,14.10
2019-04-23T11:23:37.593Z,14.00
2019-04-23T11:26:26.397Z,14.20
2019-04-23T11:31:27.524Z,14.60
2019-04-23T11:33:46.125Z,14.50
2019-04-23T11:36:43.620Z,14.40
2019-04-23T11:38:54.572Z,14.40
2019-04-23T11:41:21.482Z,14.20
2019-04-23T11:43:50.887Z,14.20
2019-04-23T11:46:32.537Z,14.20
2019-04-23T11:53:50.966Z,14.80
2019-04-23T11:56:51.493Z,14.60
2019-04-23T11:58:45.784Z,14.70
2019-04-23T12:04:14.070Z,14.70
2019-04-23T12:09:35.295Z,14.70
2019-04-23T12:14:37.160Z,14.70
2019-04-23T12:22:15.159Z,14.70
2019-04-23T12:29:37.371Z,14.60
2019-04-23T12:35:01.565Z,14.20
2019-04-23T12:37:41.106Z,14.10
2019-04-23T12:45:18.190Z,14.00
2019-04-23T12:52:41.444Z,14.00
2019-04-23T12:57:40.982Z,14.00
2019-04-23T13:02:46.472Z,13.70
2019-04-23T13:05:10.298Z,13.80
2019-04-23T13:10:15.880Z,14.00
2019-04-23T13:20:19.396Z,13.50
2019-04-23T13:22:49.196Z,13.30
2019-04-23T13:25:17.882Z,13.20
2019-04-23T13:28:08.406Z,13.20
2019-04-23T13:30:31.575Z,13.10
2019-04-23T13:32:59.008Z,13.00
2019-04-23T13:35:48.709Z,13.00
2019-04-23T13:40:36.493Z,12.90
2019-04-23T13:48:00.665Z,13.00
2019-04-23T13:50:37.385Z,12.90
2019-04-23T13:53:18.095Z,12.90
2019-04-23T13:55:27.376Z,12.90
2019-04-23T13:58:15.236Z,12.80
2019-04-23T14:02:55.523Z,12.70
2019-04-23T14:08:00.865Z,12.70
2019-04-23T14:10:36.607Z,12.60
2019-04-23T14:13:22.177Z,12.60
2019-04-23T14:15:42.874Z,12.50
2019-04-23T14:18:27.401Z,12.50
2019-04-23T14:20:33.460Z,12.20
2019-04-23T14:25:40.220Z,12.10
2019-04-23T14:30:46.374Z,11.90
2019-04-23T14:35:40.303Z,11.90
2019-04-23T14:40:43.127Z,11.80
2019-04-23T14:46:27.254Z,11.90
2019-04-23T14:48:28.193Z,11.80
2019-04-23T14:51:07.059Z,11.80
2019-04-23T14:53:43.882Z,11.70
2019-04-23T14:56:04.881Z,11.70
2019-04-23T14:58:56.912Z,11.70
2019-04-23T15:01:16.286Z,11.80
2019-04-23T15:03:40.305Z,11.70
2019-04-23T15:08:39.779Z,11.70
2019-04-23T15:13:39.279Z,11.50
2019-04-23T15:16:26.665Z,11.60
2019-04-23T15:18:52.537Z,11.40
2019-04-23T15:24:00.184Z,11.50
2019-04-23T15:28:34.025Z,11.40
2019-04-23T15:31:33.220Z,11.20
2019-04-23T15:34:00.686Z,11.10
2019-04-23T15:39:05.770Z,11.00
2019-04-23T15:44:06.029Z,10.80
2019-04-23T15:49:13.162Z,10.70
2019-04-23T15:54:02.810Z,10.60
2019-04-23T15:56:36.606Z,10.60
2019-04-23T16:01:34.554Z,10.70
2019-04-23T16:03:31.968Z,10.70
2019-04-23T16:06:02.517Z,10.70
2019-04-23T16:16:39.304Z,10.60
2019-04-23T16:19:20.771Z,10.50
2019-04-23T16:26:47.496Z,10.30
2019-04-23T16:34:25.713Z,9.90
2019-04-23T16:36:55.774Z,9.80
2019-04-23T16:39:15.095Z,9.80
2019-04-23T16:47:00.419Z,9.70
2019-04-23T16:51:47.824Z,9.50
2019-04-23T16:54:25.798Z,9.50
2019-04-23T16:59:27.103Z,9.40
2019-04-23T17:02:06.613Z,9.30
2019-04-23T17:04:24.786Z,9.30
2019-04-23T17:09:31.526Z,9.20
2019-04-23T17:12:01.539Z,9.10
2019-04-23T17:14:41.438Z,9.10
2019-04-23T17:17:04.810Z,9.10
2019-04-23T17:19:48.425Z,9.00
2019-04-23T17:22:10.596Z,8.90
2019-04-23T17:24:51.762Z,8.80
2019-04-23T17:27:24.063Z,8.80
2019-04-23T17:32:25.042Z,8.60
2019-04-23T17:35:09.614Z,8.60
2019-04-23T17:37:35.139Z,8.60
2019-04-23T17:40:12.229Z,8.60
2019-04-23T17:42:50.895Z,8.60
2019-04-23T17:45:30.880Z,8.50
2019-04-23T17:47:58.976Z,8.60
2019-04-23T17:53:09.052Z,8.50
2019-04-23T17:55:29.558Z,8.50
2019-04-23T17:58:15.581Z,8.50
2019-04-23T18:00:51.110Z,8.40
2019-04-23T18:03:30.362Z,8.40
2019-04-23T18:05:54.548Z,8.40
2019-04-23T18:08:22.915Z,8.40
2019-04-23T18:10:51.670Z,8.40
2019-04-23T18:13:21.074Z,8.40
2019-04-23T18:15:57.201Z,8.40
2019-04-23T18:18:16.621Z,8.40
2019-04-23T18:21:14.228Z,8.40
2019-04-23T18:23:32.426Z,8.40
2019-04-23T18:26:13.901Z,8.40
2019-04-23T18:28:46.049Z,8.40
2019-04-23T18:31:12.920Z,8.30
2019-04-23T18:34:08.772Z,8.30
2019-04-23T18:36:23.944Z,8.30
2019-04-23T18:39:06.225Z,8.40
2019-04-23T18:41:35.042Z,8.30
2019-04-23T18:46:36.631Z,8.30
2019-04-23T18:48:57.901Z,8.30
2019-04-23T18:51:36.747Z,8.40
2019-04-23T18:54:01.114Z,8.40
2019-04-23T18:56:56.127Z,8.40
2019-04-23T18:59:30.466Z,8.40
2019-04-23T19:01:37.834Z,8.50
2019-04-23T19:04:44.934Z,8.40
2019-04-23T19:06:37.652Z,8.50
2019-04-23T19:09:23.457Z,8.50
2019-04-23T19:12:16.220Z,8.50
2019-04-23T19:17:29.106Z,8.50
2019-04-23T19:19:33.384Z,8.40
2019-04-23T19:22:14.495Z,8.40
2019-04-23T19:24:31.677Z,8.50
2019-04-23T19:27:11.983Z,8.50
2019-04-23T19:29:40.120Z,8.50
2019-04-23T19:32:00.608Z,8.50
2019-04-23T19:34:39.005Z,8.50
2019-04-23T19:37:05.729Z,8.60
2019-04-23T19:44:41.187Z,8.50
2019-04-23T19:47:25.628Z,8.50
2019-04-23T19:49:38.863Z,8.50
2019-04-23T20:04:43.960Z,8.50
2019-04-23T20:07:32.156Z,8.40
2019-04-23T20:09:52.009Z,8.50
2019-04-23T20:12:14.118Z,8.50
2019-04-23T20:19:54.597Z,8.50
2019-04-23T20:22:17.108Z,8.50
2019-04-23T20:27:17.884Z,8.50
2019-04-23T20:30:23.467Z,8.50
2019-04-23T20:35:11.472Z,8.60
2019-04-23T20:38:08.594Z,8.60
2019-04-23T20:40:15.481Z,8.60
2019-04-23T20:42:48.155Z,8.60
2019-04-23T20:45:17.000Z,8.60
2019-04-23T20:47:45.390Z,8.70
2019-04-23T20:50:03.386Z,8.70
2019-04-23T20:52:41.664Z,8.70
2019-04-23T20:55:20.184Z,8.80
2019-04-23T21:00:21.524Z,8.70
2019-04-23T21:10:33.968Z,8.70
2019-04-23T21:20:36.977Z,8.70
2019-04-23T21:23:09.450Z,8.60
2019-04-23T21:25:41.012Z,8.70
2019-04-23T21:31:00.783Z,8.60
2019-04-23T21:33:17.826Z,8.60
2019-04-23T21:38:55.858Z,8.60
2019-04-23T21:41:24.960Z,8.60
2019-04-23T21:44:02.543Z,8.50
2019-04-23T21:46:15.894Z,8.50
2019-04-23T21:48:53.086Z,8.50
2019-04-23T21:53:40.554Z,8.40
2019-04-23T21:56:09.335Z,8.40
2019-04-23T21:58:59.828Z,8.50
2019-04-23T22:01:21.263Z,8.50
2019-04-23T22:04:06.491Z,8.60
2019-04-23T22:06:22.248Z,8.50
2019-04-23T22:08:52.869Z,8.40
2019-04-23T22:19:04.303Z,8.50
2019-04-23T22:21:20.754Z,8.50
2019-04-23T22:23:58.167Z,8.40
2019-04-23T22:26:23.554Z,8.40
2019-04-23T22:29:03.710Z,8.40
2019-04-23T22:31:18.732Z,8.30
2019-04-23T22:38:52.687Z,8.50
2019-04-23T22:41:18.180Z,8.50
2019-04-23T22:44:04.008Z,8.40
2019-04-23T22:46:22.921Z,8.40
2019-04-23T22:49:09.192Z,8.30
2019-04-23T22:51:35.946Z,8.40
2019-04-23T22:53:58.583Z,8.40
2019-04-23T22:56:27.426Z,8.30
2019-04-23T22:59:16.935Z,8.40
2019-04-23T23:04:07.759Z,8.50
2019-04-23T23:11:43.003Z,8.60
2019-04-23T23:14:22.434Z,8.60
2019-04-23T23:16:39.204Z,8.60
2019-04-23T23:19:14.188Z,8.60
2019-04-23T23:21:56.661Z,8.60
2019-04-23T23:24:10.060Z,8.60
2019-04-23T23:26:40.701Z,8.50
2019-04-23T23:29:06.302Z,8.60
2019-04-23T23:31:59.963Z,8.60
2019-04-23T23:34:36.374Z,8.50
2019-04-23T23:39:37.096Z,8.70
2019-04-23T23:45:02.102Z,8.60
2019-04-23T23:47:14.886Z,8.60
2019-04-23T23:49:56.891Z,8.60
2019-04-23T23:52:13.195Z,8.60
2019-04-23T23:54:44.511Z,8.60
